Time;durP1;ratioP1;P1;durP2;ratioP2;P2;SDS_P1;SDS_P2;PMS_P1;PMS_P2;Temp;Humidity;BMP_temperature;BMP_pressure;BME280_temperature;BME280_humidity;BME280_pressure;Samples;Min_cycle;Max_cycle;Signal;HPM_P1;HPM_P2
2022/10/21 00:01:03;;;;;;;13.17;8.60;;;;;;;;;;5035131;28;20942;-68
2022/10/21 00:03:30;;;;;;;15.60;8.57;;;;;;;;;;5052403;28;20464;-68
2022/10/21 00:05:57;;;;;;;12.80;8.30;;;;;;;;;;5038469;28;20522;-68
2022/10/21 00:08:23;;;;;;;13.33;8.30;;;;;;;;;;5031616;28;20438;-68
2022/10/21 00:11:00;;;;;;;13.60;8.60;;;;;;;;;;5032723;28;20418;-68
2022/10/21 00:13:27;;;;;;;14.93;8.70;;;;;;;;;;5032631;28;20433;-68
2022/10/21 00:15:57;;;;;;;12.23;8.27;;;;;;;;;;5032745;28;20525;-69
2022/10/21 00:18:23;;;;;;;12.33;8.10;;;;;;;;;;5032588;28;20476;-68
2022/10/21 00:20:50;;;;;;;13.93;8.37;;;;;;;;;;5015012;28;20520;-68
2022/10/21 00:23:17;;;;;;;13.87;8.33;;;;;;;;;;5032663;28;20464;-68
2022/10/21 00:25:43;;;;;;;13.03;7.57;;;;;;;;;;5014927;28;20429;-68
2022/10/21 00:28:10;;;;;;;11.40;7.87;;;;;;;;;;5032438;28;20817;-68
2022/10/21 00:30:40;;;;;;;14.73;8.10;;;;;;;;;;5032281;28;20479;-68
2022/10/21 00:33:07;;;;;;;12.03;7.70;;;;;;;;;;5032191;28;20507;-69
2022/10/21 00:35:34;;;;;;;14.57;8.63;;;;;;;;;;5032304;28;20510;-68
2022/10/21 00:38:00;;;;;;;12.53;7.83;;;;;;;;;;5031913;28;20489;-68
2022/10/21 00:40:27;;;;;;;11.77;7.87;;;;;;;;;;5014705;28;20499;-68
2022/10/21 00:42:53;;;;;;;14.70;8.20;;;;;;;;;;5032655;28;20441;-68
2022/10/21 00:45:21;;;;;;;13.83;7.70;;;;;;;;;;5039055;28;20447;-68
2022/10/21 00:48:06;;;;;;;12.90;8.30;;;;;;;;;;5050484;28;20514;-68
2022/10/21 00:50:37;;;;;;;13.97;8.13;;;;;;;;;;5051887;28;20439;-68
2022/10/21 00:53:08;;;;;;;12.33;7.70;;;;;;;;;;5034655;28;20433;-68
2022/10/21 00:55:36;;;;;;;11.87;7.83;;;;;;;;;;5034179;28;20522;-68
2022/10/21 00:58:02;;;;;;;14.43;7.77;;;;;;;;;;5034191;28;20466;-68
2022/10/21 01:00:29;;;;;;;13.50;7.43;;;;;;;;;;5034079;28;21046;-68
2022/10/21 01:02:55;;;;;;;10.13;7.03;;;;;;;;;;4998288;28;20813;-68
2022/10/21 01:05:22;;;;;;;12.23;7.47;;;;;;;;;;5014085;28;20423;-68
2022/10/21 01:07:49;;;;;;;14.80;7.87;;;;;;;;;;4997420;28;20437;-68
2022/10/21 01:10:15;;;;;;;12.70;8.30;;;;;;;;;;5032042;28;20556;-68
2022/10/21 01:12:42;;;;;;;15.07;7.73;;;;;;;;;;5014445;28;20762;-68
2022/10/21 01:15:23;;;;;;;13.17;8.30;;;;;;;;;;5031284;28;20995;-68
2022/10/21 01:17:50;;;;;;;12.30;7.47;;;;;;;;;;5029531;28;20471;-68
2022/10/21 01:20:20;;;;;;;12.47;7.90;;;;;;;;;;5051484;28;20940;-68
2022/10/21 01:22:50;;;;;;;12.53;8.07;;;;;;;;;;5033377;28;20419;-69
2022/10/21 01:25:28;;;;;;;12.13;8.30;;;;;;;;;;5051363;28;20487;-68
2022/10/21 01:28:14;;;;;;;15.73;9.07;;;;;;;;;;5051746;28;20441;-68
2022/10/21 01:30:41;;;;;;;13.27;8.97;;;;;;;;;;5051057;28;20436;-68
2022/10/21 01:33:19;;;;;;;12.60;8.37;;;;;;;;;;5033379;28;20456;-68
2022/10/21 01:35:54;;;;;;;16.03;9.30;;;;;;;;;;5032049;28;20454;-68
2022/10/21 01:38:40;;;;;;;16.30;9.20;;;;;;;;;;5033317;28;20480;-68
2022/10/21 01:41:13;;;;;;;14.50;9.33;;;;;;;;;;5050829;28;20445;-68
2022/10/21 01:43:42;;;;;;;14.70;9.67;;;;;;;;;;5050758;28;20433;-68
2022/10/21 01:46:11;;;;;;;18.10;9.93;;;;;;;;;;5051104;28;20475;-68
2022/10/21 01:48:39;;;;;;;15.30;9.27;;;;;;;;;;5033298;28;20480;-68
2022/10/21 01:51:06;;;;;;;15.20;10.03;;;;;;;;;;5033100;28;21419;-68
2022/10/21 01:53:36;;;;;;;18.07;9.97;;;;;;;;;;5051004;28;20439;-69
2022/10/21 01:56:03;;;;;;;15.70;9.83;;;;;;;;;;5050393;28;20443;-69
2022/10/21 01:58:30;;;;;;;17.40;9.77;;;;;;;;;;5047513;28;21055;-67
2022/10/21 02:00:57;;;;;;;18.07;10.63;;;;;;;;;;5030986;28;20473;-67
2022/10/21 02:03:25;;;;;;;18.73;10.10;;;;;;;;;;5017531;28;20853;-67
2022/10/21 02:05:52;;;;;;;15.57;9.97;;;;;;;;;;5049229;28;20450;-68
2022/10/21 02:08:19;;;;;;;15.60;9.27;;;;;;;;;;5049245;28;20455;-67
2022/10/21 02:10:46;;;;;;;15.37;10.17;;;;;;;;;;5050067;28;20442;-67
2022/10/21 02:13:14;;;;;;;12.83;9.27;;;;;;;;;;5049573;28;20449;-67
2022/10/21 02:15:43;;;;;;;15.87;9.70;;;;;;;;;;5049109;28;20429;-68
2022/10/21 02:18:20;;;;;;;14.90;10.03;;;;;;;;;;5031796;28;20469;-67
2022/10/21 02:20:48;;;;;;;17.03;10.13;;;;;;;;;;5050033;28;20455;-69
2022/10/21 02:23:14;;;;;;;15.63;9.30;;;;;;;;;;5029380;28;20848;-69
2022/10/21 02:25:41;;;;;;;16.73;10.63;;;;;;;;;;5012834;28;20492;-67
2022/10/21 02:28:07;;;;;;;15.30;9.90;;;;;;;;;;5012863;28;20529;-67
2022/10/21 02:30:37;;;;;;;19.00;10.90;;;;;;;;;;5030256;28;20806;-66
2022/10/21 02:33:13;;;;;;;16.33;10.40;;;;;;;;;;5012642;28;20438;-68
2022/10/21 02:35:52;;;;;;;15.97;10.13;;;;;;;;;;5012361;28;20427;-68
2022/10/21 02:38:22;;;;;;;17.77;10.20;;;;;;;;;;5029769;28;20462;-68
2022/10/21 02:40:50;;;;;;;14.17;8.90;;;;;;;;;;5029793;28;20510;-68
2022/10/21 02:43:33;;;;;;;18.97;9.97;;;;;;;;;;5012411;28;20446;-68
2022/10/21 02:46:01;;;;;;;15.83;9.50;;;;;;;;;;5012483;28;20441;-69
2022/10/21 02:48:27;;;;;;;14.30;9.03;;;;;;;;;;5012082;28;20469;-68
2022/10/21 02:50:54;;;;;;;15.77;9.77;;;;;;;;;;5029629;28;20430;-68
2022/10/21 02:53:21;;;;;;;16.43;9.90;;;;;;;;;;5029774;28;20935;-67
2022/10/21 02:55:47;;;;;;;16.70;9.80;;;;;;;;;;5029634;28;20963;-68
2022/10/21 02:58:14;;;;;;;13.23;8.30;;;;;;;;;;5029959;28;20465;-68
2022/10/21 03:00:41;;;;;;;15.13;9.30;;;;;;;;;;5029624;28;20465;-68
2022/10/21 03:03:07;;;;;;;22.40;9.80;;;;;;;;;;5029433;28;20421;-68
2022/10/21 03:05:34;;;;;;;16.90;9.17;;;;;;;;;;5011968;28;20444;-69
2022/10/21 03:08:01;;;;;;;13.57;8.40;;;;;;;;;;5029247;28;20868;-68
2022/10/21 03:10:28;;;;;;;14.20;9.37;;;;;;;;;;5029662;28;20928;-68
2022/10/21 03:12:54;;;;;;;19.57;9.57;;;;;;;;;;5029801;28;20823;-68
2022/10/21 03:15:21;;;;;;;14.60;9.00;;;;;;;;;;5027906;28;20459;-68
2022/10/21 03:17:47;;;;;;;15.27;8.33;;;;;;;;;;5011552;28;20535;-68
2022/10/21 03:20:14;;;;;;;15.03;8.13;;;;;;;;;;5029422;28;20888;-68
2022/10/21 03:22:41;;;;;;;13.87;8.27;;;;;;;;;;5041759;28;20445;-68
2022/10/21 03:25:07;;;;;;;13.90;8.50;;;;;;;;;;5049516;28;20474;-68
2022/10/21 03:27:34;;;;;;;12.77;7.40;;;;;;;;;;5049299;28;20461;-68
2022/10/21 03:30:01;;;;;;;18.50;8.77;;;;;;;;;;5048985;28;20461;-68
2022/10/21 03:32:27;;;;;;;13.97;7.60;;;;;;;;;;5049339;28;20437;-68
2022/10/21 03:34:54;;;;;;;14.20;8.13;;;;;;;;;;5049117;28;20439;-68
2022/10/21 03:37:20;;;;;;;14.10;8.13;;;;;;;;;;5048821;28;20429;-68
2022/10/21 03:39:47;;;;;;;14.40;7.90;;;;;;;;;;5032609;28;20470;-68
2022/10/21 03:42:13;;;;;;;15.40;8.00;;;;;;;;;;5028912;28;20431;-68
2022/10/21 03:44:40;;;;;;;13.77;7.40;;;;;;;;;;5029015;28;20436;-68
2022/10/21 03:47:06;;;;;;;11.87;7.00;;;;;;;;;;5028871;28;21004;-68
2022/10/21 03:49:33;;;;;;;13.27;8.03;;;;;;;;;;5029117;28;20821;-68
2022/10/21 03:52:01;;;;;;;10.00;6.73;;;;;;;;;;5029052;28;20471;-68
2022/10/21 03:54:27;;;;;;;11.97;7.60;;;;;;;;;;5029174;28;20464;-68
2022/10/21 03:56:54;;;;;;;11.83;6.73;;;;;;;;;;5019152;28;20470;-68
2022/10/21 03:59:20;;;;;;;11.33;7.10;;;;;;;;;;5029171;28;20457;-68
2022/10/21 04:01:47;;;;;;;12.67;7.30;;;;;;;;;;5029077;28;20505;-68
2022/10/21 04:04:13;;;;;;;11.47;6.67;;;;;;;;;;5040254;28;20523;-68
2022/10/21 04:06:40;;;;;;;13.93;7.17;;;;;;;;;;5030955;28;20540;-68
2022/10/21 04:09:07;;;;;;;12.17;7.20;;;;;;;;;;5048640;28;20462;-68
2022/10/21 04:11:34;;;;;;;12.60;7.57;;;;;;;;;;5048618;28;20791;-68
2022/10/21 04:14:00;;;;;;;11.63;7.00;;;;;;;;;;5034707;28;20438;-68
2022/10/21 04:16:27;;;;;;;12.30;6.90;;;;;;;;;;5037239;28;20532;-69
2022/10/21 04:18:54;;;;;;;12.70;7.03;;;;;;;;;;5047757;28;20560;-68
2022/10/21 04:21:20;;;;;;;12.80;7.37;;;;;;;;;;5046191;28;20959;-68
2022/10/21 04:23:52;;;;;;;13.53;8.10;;;;;;;;;;5045302;28;20502;-68
2022/10/21 04:26:19;;;;;;;10.73;6.97;;;;;;;;;;5026109;28;20453;-68
2022/10/21 04:28:46;;;;;;;15.67;7.50;;;;;;;;;;5013983;28;20453;-68
2022/10/21 04:31:13;;;;;;;12.10;7.50;;;;;;;;;;5044769;28;20944;-69
2022/10/21 04:33:39;;;;;;;11.87;7.60;;;;;;;;;;5035662;28;20438;-68
2022/10/21 04:36:06;;;;;;;10.47;6.37;;;;;;;;;;5048361;28;20430;-68
2022/10/21 04:38:33;;;;;;;12.13;6.70;;;;;;;;;;5048334;28;20860;-68
2022/10/21 04:41:00;;;;;;;14.87;7.93;;;;;;;;;;5046712;28;21036;-68
2022/10/21 04:43:27;;;;;;;13.50;7.77;;;;;;;;;;5017763;28;20785;-68
2022/10/21 04:45:54;;;;;;;11.77;7.07;;;;;;;;;;5023123;28;20461;-68
2022/10/21 04:48:21;;;;;;;10.87;6.90;;;;;;;;;;5033637;28;21468;-68
2022/10/21 04:50:48;;;;;;;13.10;7.50;;;;;;;;;;5048280;28;20434;-69
2022/10/21 04:53:15;;;;;;;12.37;6.97;;;;;;;;;;5049835;28;20443;-69
2022/10/21 04:55:42;;;;;;;12.13;6.80;;;;;;;;;;5052923;28;20487;-69
2022/10/21 04:58:08;;;;;;;11.73;6.83;;;;;;;;;;5036111;28;20463;-69
2022/10/21 05:00:35;;;;;;;17.40;7.47;;;;;;;;;;5051955;28;20952;-69
2022/10/21 05:03:02;;;;;;;11.83;7.20;;;;;;;;;;5049389;28;20827;-69
2022/10/21 05:05:28;;;;;;;12.03;6.97;;;;;;;;;;5044742;28;20928;-69
2022/10/21 05:07:55;;;;;;;14.67;7.90;;;;;;;;;;5040848;28;20430;-69
2022/10/21 05:10:22;;;;;;;14.07;7.57;;;;;;;;;;5046901;28;20503;-70
2022/10/21 05:12:49;;;;;;;13.33;7.03;;;;;;;;;;5018856;28;20433;-69
2022/10/21 05:15:16;;;;;;;11.97;7.43;;;;;;;;;;5050041;28;21119;-70
2022/10/21 05:17:43;;;;;;;13.00;6.73;;;;;;;;;;5034172;28;20515;-69
2022/10/21 05:20:09;;;;;;;13.47;7.00;;;;;;;;;;5051529;28;20469;-71
2022/10/21 05:22:36;;;;;;;17.50;7.10;;;;;;;;;;5053503;28;20523;-69
2022/10/21 05:25:04;;;;;;;17.33;8.37;;;;;;;;;;5052041;28;20451;-69
2022/10/21 05:27:30;;;;;;;13.17;7.37;;;;;;;;;;5034879;28;20510;-70
2022/10/21 05:29:57;;;;;;;11.53;7.50;;;;;;;;;;5027906;28;20475;-70
2022/10/21 05:32:24;;;;;;;14.93;7.63;;;;;;;;;;5034160;28;20440;-69
2022/10/21 05:34:51;;;;;;;14.50;8.00;;;;;;;;;;5044725;28;20540;-69
2022/10/21 05:37:17;;;;;;;12.03;7.40;;;;;;;;;;5040669;28;20508;-69
2022/10/21 05:39:44;;;;;;;14.77;7.40;;;;;;;;;;5031042;28;20517;-68
2022/10/21 05:42:11;;;;;;;13.97;7.37;;;;;;;;;;5012556;28;20923;-68
2022/10/21 05:44:37;;;;;;;15.43;8.50;;;;;;;;;;5026568;28;20434;-69
2022/10/21 05:47:04;;;;;;;15.43;8.30;;;;;;;;;;5011542;28;21174;-69
2022/10/21 05:49:30;;;;;;;12.80;7.53;;;;;;;;;;5026399;28;20482;-69
2022/10/21 05:51:57;;;;;;;13.07;7.87;;;;;;;;;;5027876;28;20535;-69
2022/10/21 05:54:24;;;;;;;16.13;8.63;;;;;;;;;;5028648;28;20419;-69
2022/10/21 05:56:53;;;;;;;15.17;8.63;;;;;;;;;;5031067;28;20505;-69
2022/10/21 05:59:21;;;;;;;15.23;8.17;;;;;;;;;;5013069;28;20576;-69
2022/10/21 06:01:47;;;;;;;14.40;8.47;;;;;;;;;;5030733;28;20787;-69
2022/10/21 06:04:14;;;;;;;14.43;8.13;;;;;;;;;;5031007;28;20438;-70
2022/10/21 06:06:41;;;;;;;16.23;8.87;;;;;;;;;;5029845;28;20945;-74
2022/10/21 06:09:07;;;;;;;15.47;8.70;;;;;;;;;;5013209;28;20460;-69
2022/10/21 06:11:35;;;;;;;17.97;9.37;;;;;;;;;;5013348;28;20430;-70
2022/10/21 06:14:02;;;;;;;14.40;8.17;;;;;;;;;;5013071;28;20461;-70
2022/10/21 06:16:28;;;;;;;15.50;8.57;;;;;;;;;;5030547;28;20495;-70
2022/10/21 06:18:55;;;;;;;15.93;8.97;;;;;;;;;;5030876;28;20514;-70
2022/10/21 06:21:22;;;;;;;17.03;8.43;;;;;;;;;;5030181;28;20430;-70
2022/10/21 06:23:51;;;;;;;16.20;9.10;;;;;;;;;;5020713;28;20445;-70
2022/10/21 06:26:17;;;;;;;17.67;9.87;;;;;;;;;;5043899;28;20434;-69
2022/10/21 06:28:44;;;;;;;15.17;9.33;;;;;;;;;;5023255;28;20469;-73
2022/10/21 06:31:12;;;;;;;17.87;9.13;;;;;;;;;;5019655;28;21145;-72
2022/10/21 06:33:38;;;;;;;17.67;9.20;;;;;;;;;;5009333;28;20476;-71
2022/10/21 06:36:05;;;;;;;15.73;9.40;;;;;;;;;;5031939;28;20442;-70
2022/10/21 06:38:33;;;;;;;13.67;8.93;;;;;;;;;;5014902;28;21009;-71
2022/10/21 06:41:00;;;;;;;14.60;9.20;;;;;;;;;;5018570;28;20449;-70
2022/10/21 06:43:27;;;;;;;16.13;9.80;;;;;;;;;;5032636;28;20444;-69
2022/10/21 06:46:00;;;;;;;15.70;9.43;;;;;;;;;;5034421;28;20442;-73
2022/10/21 06:48:44;;;;;;;16.13;10.10;;;;;;;;;;5021581;28;20468;-73
2022/10/21 06:51:13;;;;;;;16.37;9.67;;;;;;;;;;5023407;28;20433;-69
2022/10/21 06:53:40;;;;;;;17.23;9.47;;;;;;;;;;5024218;28;20536;-70
2022/10/21 06:56:11;;;;;;;16.57;9.47;;;;;;;;;;5005099;28;20486;-71
2022/10/21 06:58:41;;;;;;;16.90;9.90;;;;;;;;;;5032350;28;21394;-69
2022/10/21 07:01:09;;;;;;;16.63;9.63;;;;;;;;;;5019850;28;20442;-70
2022/10/21 07:03:56;;;;;;;15.67;9.97;;;;;;;;;;5025945;28;20437;-71
2022/10/21 07:06:23;;;;;;;14.23;9.60;;;;;;;;;;5031013;28;20434;-68
2022/10/21 07:08:50;;;;;;;17.27;9.70;;;;;;;;;;5038696;28;20450;-70
2022/10/21 07:11:24;;;;;;;15.27;10.23;;;;;;;;;;5023014;28;20904;-70
2022/10/21 07:13:51;;;;;;;17.37;10.20;;;;;;;;;;5032985;28;20436;-70
2022/10/21 07:16:18;;;;;;;17.53;10.00;;;;;;;;;;5030756;28;20445;-69
2022/10/21 07:18:45;;;;;;;18.13;9.90;;;;;;;;;;5022210;28;20442;-71
2022/10/21 07:21:13;;;;;;;20.50;10.57;;;;;;;;;;5031851;28;20483;-71
2022/10/21 07:23:40;;;;;;;17.50;11.27;;;;;;;;;;5020822;28;20523;-69
2022/10/21 07:26:07;;;;;;;19.37;11.83;;;;;;;;;;5033351;28;20456;-69
2022/10/21 07:28:34;;;;;;;19.90;11.30;;;;;;;;;;5026320;28;20538;-68
2022/10/21 07:31:00;;;;;;;19.77;10.90;;;;;;;;;;5029540;28;20917;-69
2022/10/21 07:33:27;;;;;;;18.90;11.33;;;;;;;;;;5025828;28;20454;-69
2022/10/21 07:36:04;;;;;;;17.83;10.07;;;;;;;;;;5029289;28;20439;-69
2022/10/21 07:38:31;;;;;;;21.17;11.03;;;;;;;;;;5028208;28;20446;-69
2022/10/21 07:40:58;;;;;;;17.40;10.93;;;;;;;;;;5027944;28;20446;-68
2022/10/21 07:43:24;;;;;;;16.70;10.37;;;;;;;;;;5029281;28;20457;-67
2022/10/21 07:45:52;;;;;;;18.93;11.23;;;;;;;;;;5029529;28;20436;-68
2022/10/21 07:48:18;;;;;;;18.43;11.07;;;;;;;;;;5029327;28;20471;-68
2022/10/21 07:50:45;;;;;;;20.67;11.37;;;;;;;;;;5029375;28;20496;-68
2022/10/21 07:53:13;;;;;;;18.67;11.30;;;;;;;;;;5029327;28;20959;-69
2022/10/21 07:55:40;;;;;;;19.43;11.90;;;;;;;;;;5028956;28;20476;-68
2022/10/21 07:58:07;;;;;;;17.37;10.70;;;;;;;;;;5029293;28;20428;-68
2022/10/21 08:00:34;;;;;;;17.73;10.67;;;;;;;;;;5029045;28;20466;-68
2022/10/21 08:03:01;;;;;;;17.37;10.63;;;;;;;;;;5029296;28;20807;-68
2022/10/21 08:05:27;;;;;;;18.37;10.90;;;;;;;;;;5029140;28;20467;-68
2022/10/21 08:07:54;;;;;;;19.37;11.27;;;;;;;;;;5029083;28;20914;-68
2022/10/21 08:10:39;;;;;;;22.03;10.93;;;;;;;;;;5029076;28;20529;-68
2022/10/21 08:13:06;;;;;;;20.73;11.47;;;;;;;;;;5028467;28;20444;-68
2022/10/21 08:15:33;;;;;;;20.03;11.43;;;;;;;;;;5028978;28;20435;-68
2022/10/21 08:17:59;;;;;;;18.77;11.20;;;;;;;;;;5032210;28;20929;-68
2022/10/21 08:20:26;;;;;;;19.07;11.80;;;;;;;;;;5032355;28;20512;-68
2022/10/21 08:22:53;;;;;;;20.83;12.27;;;;;;;;;;5032774;28;20801;-68
2022/10/21 08:25:20;;;;;;;18.20;12.10;;;;;;;;;;5032701;28;20440;-68
2022/10/21 08:27:46;;;;;;;21.00;11.70;;;;;;;;;;5032820;28;20434;-67
2022/10/21 08:30:14;;;;;;;20.03;11.60;;;;;;;;;;5031547;28;20434;-68
2022/10/21 08:32:41;;;;;;;18.30;11.03;;;;;;;;;;5015068;28;20440;-68
2022/10/21 08:35:08;;;;;;;19.43;12.47;;;;;;;;;;5031201;28;20450;-68
2022/10/21 08:37:34;;;;;;;17.67;11.33;;;;;;;;;;5032477;28;20429;-67
2022/10/21 08:40:01;;;;;;;19.80;11.73;;;;;;;;;;5032863;28;20532;-68
2022/10/21 08:42:28;;;;;;;17.97;10.83;;;;;;;;;;5014902;28;20556;-68
2022/10/21 08:45:05;;;;;;;20.57;10.40;;;;;;;;;;5031442;28;20557;-67
2022/10/21 08:47:43;;;;;;;19.10;11.50;;;;;;;;;;5013560;28;20478;-67
2022/10/21 08:50:12;;;;;;;19.07;11.23;;;;;;;;;;5032277;28;20433;-67
2022/10/21 08:52:39;;;;;;;21.47;12.77;;;;;;;;;;5014728;28;20464;-68
2022/10/21 08:55:07;;;;;;;19.03;12.23;;;;;;;;;;5032193;28;21062;-68
2022/10/21 08:57:34;;;;;;;19.27;11.53;;;;;;;;;;5014872;28;20559;-68
2022/10/21 09:00:05;;;;;;;17.97;11.47;;;;;;;;;;5014906;28;20213;-68
2022/10/21 09:02:38;;;;;;;19.63;12.03;;;;;;;;;;5014754;28;20195;-67
2022/10/21 09:05:17;;;;;;;18.47;11.93;;;;;;;;;;5014222;28;20199;-68
2022/10/21 09:07:59;;;;;;;20.50;11.93;;;;;;;;;;5031146;28;20209;-67
2022/10/21 09:10:32;;;;;;;21.87;11.77;;;;;;;;;;5013706;28;20223;-68
2022/10/21 09:12:58;;;;;;;17.60;11.07;;;;;;;;;;5032280;28;20203;-68
2022/10/21 09:15:48;;;;;;;17.73;11.93;;;;;;;;;;5031664;28;20196;-68
2022/10/21 09:18:18;;;;;;;19.83;13.37;;;;;;;;;;5021719;28;20204;-68
2022/10/21 09:20:45;;;;;;;16.67;11.20;;;;;;;;;;5031371;28;20265;-67
2022/10/21 09:23:14;;;;;;;19.40;12.40;;;;;;;;;;5031919;28;20176;-68
2022/10/21 09:25:55;;;;;;;20.90;11.93;;;;;;;;;;5031778;28;20187;-67
2022/10/21 09:28:22;;;;;;;18.63;12.50;;;;;;;;;;5013231;28;20236;-68
2022/10/21 09:30:49;;;;;;;18.20;12.13;;;;;;;;;;5014311;28;20183;-68
2022/10/21 09:33:21;;;;;;;20.07;11.90;;;;;;;;;;5031613;28;20275;-68
2022/10/21 09:35:50;;;;;;;25.87;12.80;;;;;;;;;;5031009;28;20663;-68
2022/10/21 09:38:27;;;;;;;22.80;12.97;;;;;;;;;;5014199;28;20430;-69
2022/10/21 09:40:59;;;;;;;22.17;12.90;;;;;;;;;;5031296;28;20682;-69
2022/10/21 09:43:26;;;;;;;17.23;12.03;;;;;;;;;;5014005;28;20187;-68
2022/10/21 09:45:53;;;;;;;20.07;12.53;;;;;;;;;;5030931;28;20180;-68
2022/10/21 09:48:25;;;;;;;22.60;13.77;;;;;;;;;;5013588;28;20226;-68
2022/10/21 09:50:55;;;;;;;24.90;13.70;;;;;;;;;;5030367;28;20196;-68
2022/10/21 09:53:30;;;;;;;21.17;13.43;;;;;;;;;;5031273;28;20203;-68
2022/10/21 09:56:05;;;;;;;20.03;12.43;;;;;;;;;;5029805;28;20197;-69
2022/10/21 09:58:35;;;;;;;24.63;11.87;;;;;;;;;;5013590;28;20218;-68
2022/10/21 10:01:02;;;;;;;20.57;12.90;;;;;;;;;;5031190;28;20226;-68
2022/10/21 10:03:29;;;;;;;22.97;13.40;;;;;;;;;;5013423;28;20195;-68
2022/10/21 10:05:56;;;;;;;21.63;13.20;;;;;;;;;;5029937;28;20267;-69
2022/10/21 10:08:38;;;;;;;26.53;15.77;;;;;;;;;;5030864;28;20547;-68
2022/10/21 10:11:08;;;;;;;26.13;15.87;;;;;;;;;;5030495;28;20204;-68
2022/10/21 10:13:46;;;;;;;21.03;13.70;;;;;;;;;;5030841;28;20658;-68
2022/10/21 10:16:26;;;;;;;20.67;13.37;;;;;;;;;;5013408;28;20191;-68
2022/10/21 10:19:09;;;;;;;21.40;12.30;;;;;;;;;;5031016;28;20202;-68
2022/10/21 10:21:35;;;;;;;23.93;13.53;;;;;;;;;;5012928;28;20264;-68
2022/10/21 10:24:04;;;;;;;21.83;13.07;;;;;;;;;;5030574;28;20196;-68
2022/10/21 10:26:35;;;;;;;21.00;13.10;;;;;;;;;;5013143;28;20196;-68
2022/10/21 10:29:08;;;;;;;19.47;13.27;;;;;;;;;;5013224;28;20903;-68
2022/10/21 10:31:35;;;;;;;16.77;11.57;;;;;;;;;;5029705;28;20267;-68
2022/10/21 10:34:22;;;;;;;19.70;12.80;;;;;;;;;;5013309;28;20671;-68
2022/10/21 10:36:48;;;;;;;20.20;13.50;;;;;;;;;;5030250;28;20242;-68
2022/10/21 10:39:16;;;;;;;22.20;13.40;;;;;;;;;;5012257;28;20547;-68
2022/10/21 10:41:47;;;;;;;20.13;12.33;;;;;;;;;;5012695;28;20302;-68
2022/10/21 10:44:26;;;;;;;21.37;13.07;;;;;;;;;;5012986;28;20191;-68
2022/10/21 10:46:53;;;;;;;21.47;12.70;;;;;;;;;;5011709;28;20199;-68
2022/10/21 10:49:21;;;;;;;23.20;12.77;;;;;;;;;;5012949;28;20199;-69
2022/10/21 10:52:08;;;;;;;21.37;12.93;;;;;;;;;;5030172;28;20534;-68
2022/10/21 10:54:36;;;;;;;17.73;11.30;;;;;;;;;;4997684;28;20222;-68
2022/10/21 10:57:05;;;;;;;21.73;12.07;;;;;;;;;;5022992;28;20289;-68
2022/10/21 10:59:51;;;;;;;21.87;12.97;;;;;;;;;;5030173;28;20341;-68
2022/10/21 11:02:21;;;;;;;18.90;12.53;;;;;;;;;;5029861;28;20270;-68
2022/10/21 11:04:48;;;;;;;19.73;12.77;;;;;;;;;;5011863;28;20192;-68
2022/10/21 11:07:20;;;;;;;22.10;12.60;;;;;;;;;;5030152;28;20594;-68
2022/10/21 11:09:48;;;;;;;20.57;12.80;;;;;;;;;;5029903;28;20210;-68
2022/10/21 11:12:16;;;;;;;23.80;13.13;;;;;;;;;;5028539;28;20188;-68
2022/10/21 11:14:43;;;;;;;22.37;13.77;;;;;;;;;;5028514;28;20195;-68
2022/10/21 11:17:11;;;;;;;19.87;12.03;;;;;;;;;;5011567;28;20274;-69
2022/10/21 11:19:59;;;;;;;20.07;11.97;;;;;;;;;;5012435;28;20199;-68
2022/10/21 11:22:29;;;;;;;19.50;12.97;;;;;;;;;;5012053;28;20219;-68
2022/10/21 11:24:56;;;;;;;20.20;11.77;;;;;;;;;;5029880;28;20187;-68
2022/10/21 11:27:26;;;;;;;36.17;20.43;;;;;;;;;;5012205;28;20195;-68
2022/10/21 11:29:56;;;;;;;34.17;19.73;;;;;;;;;;5012178;28;20202;-68
2022/10/21 11:32:26;;;;;;;30.47;18.20;;;;;;;;;;5029452;28;20294;-68
2022/10/21 11:35:11;;;;;;;34.60;19.43;;;;;;;;;;5029748;28;20555;-68
2022/10/21 11:37:43;;;;;;;32.60;15.97;;;;;;;;;;5029325;28;21019;-68
2022/10/21 11:40:13;;;;;;;26.03;16.30;;;;;;;;;;5012226;28;20207;-68
2022/10/21 11:42:44;;;;;;;27.63;15.47;;;;;;;;;;5011928;28;20191;-67
2022/10/21 11:45:10;;;;;;;19.03;12.77;;;;;;;;;;5011834;28;20198;-67
2022/10/21 11:47:37;;;;;;;22.43;13.40;;;;;;;;;;5029177;28;20230;-69
2022/10/21 11:50:06;;;;;;;21.93;14.20;;;;;;;;;;5029609;28;20250;-68
2022/10/21 11:52:52;;;;;;;29.87;18.10;;;;;;;;;;5033477;28;20266;-68
2022/10/21 11:55:18;;;;;;;28.33;16.60;;;;;;;;;;5033684;28;20222;-68
2022/10/21 11:57:48;;;;;;;26.60;15.80;;;;;;;;;;5032675;28;20180;-68
2022/10/21 12:00:16;;;;;;;26.43;14.03;;;;;;;;;;5033345;28;20210;-68
2022/10/21 12:02:52;;;;;;;34.23;17.87;;;;;;;;;;5015490;28;20206;-69
2022/10/21 12:05:29;;;;;;;27.47;16.03;;;;;;;;;;5033244;28;20557;-68
2022/10/21 12:08:05;;;;;;;28.07;17.10;;;;;;;;;;5015430;28;20178;-68
2022/10/21 12:10:51;;;;;;;31.70;18.13;;;;;;;;;;5033143;28;20274;-69
2022/10/21 12:13:18;;;;;;;31.90;18.63;;;;;;;;;;5032736;28;20195;-69
2022/10/21 12:15:46;;;;;;;31.97;18.37;;;;;;;;;;5033492;28;20171;-70
2022/10/21 12:18:14;;;;;;;32.93;18.83;;;;;;;;;;5033150;28;20434;-67
2022/10/21 12:20:41;;;;;;;29.87;17.23;;;;;;;;;;5032893;28;20207;-69
2022/10/21 12:23:08;;;;;;;27.27;15.57;;;;;;;;;;5015105;28;20575;-68
2022/10/21 12:25:38;;;;;;;32.47;18.07;;;;;;;;;;5015637;28;20187;-68
2022/10/21 12:28:25;;;;;;;25.07;15.63;;;;;;;;;;5032784;28;20275;-68
2022/10/21 12:31:14;;;;;;;29.50;17.87;;;;;;;;;;5031263;28;20211;-68
2022/10/21 12:33:42;;;;;;;23.50;16.07;;;;;;;;;;5015126;28;20211;-69
2022/10/21 12:36:27;;;;;;;28.03;18.20;;;;;;;;;;5032494;28;20190;-68
2022/10/21 12:38:57;;;;;;;34.37;18.47;;;;;;;;;;5032474;28;20684;-68
2022/10/21 12:41:23;;;;;;;26.87;17.00;;;;;;;;;;5015058;28;20728;-68
2022/10/21 12:44:10;;;;;;;34.73;17.77;;;;;;;;;;5030976;28;20199;-68
2022/10/21 12:46:37;;;;;;;37.27;20.33;;;;;;;;;;5032192;28;20226;-69
2022/10/21 12:49:18;;;;;;;36.33;20.30;;;;;;;;;;5032463;28;20223;-68
2022/10/21 12:51:49;;;;;;;31.07;18.73;;;;;;;;;;5032317;28;20184;-69
2022/10/21 12:54:16;;;;;;;36.13;22.10;;;;;;;;;;5032248;28;20188;-69
2022/10/21 12:56:44;;;;;;;30.07;19.13;;;;;;;;;;5014148;28;20210;-68
2022/10/21 12:59:31;;;;;;;30.37;19.13;;;;;;;;;;5031232;28;20190;-69
2022/10/21 13:02:01;;;;;;;27.27;17.00;;;;;;;;;;5014208;28;20308;-60
2022/10/21 13:04:31;;;;;;;29.47;17.83;;;;;;;;;;5031673;28;20213;-60
2022/10/21 13:06:59;;;;;;;34.00;20.87;;;;;;;;;;5032262;28;20215;-69
2022/10/21 13:09:29;;;;;;;36.90;22.23;;;;;;;;;;5030490;28;20976;-70
2022/10/21 13:12:01;;;;;;;35.20;21.13;;;;;;;;;;5031576;28;20637;-70
2022/10/21 13:14:29;;;;;;;34.33;20.20;;;;;;;;;;4994698;28;20196;-69
2022/10/21 13:17:14;;;;;;;32.00;19.60;;;;;;;;;;4995781;28;20660;-70
2022/10/21 13:19:41;;;;;;;29.27;17.17;;;;;;;;;;5012283;28;20207;-69
2022/10/21 13:22:11;;;;;;;36.63;21.33;;;;;;;;;;5012014;28;20655;-69
2022/10/21 13:24:38;;;;;;;31.93;19.37;;;;;;;;;;5011875;28;20196;-69
2022/10/21 13:27:22;;;;;;;27.80;17.67;;;;;;;;;;4999637;28;20192;-69
2022/10/21 13:29:49;;;;;;;29.50;17.83;;;;;;;;;;5012244;28;20234;-69
2022/10/21 13:32:16;;;;;;;27.33;16.20;;;;;;;;;;5030773;28;20192;-68
2022/10/21 13:34:49;;;;;;;28.67;16.37;;;;;;;;;;5012020;28;20199;-68
2022/10/21 13:37:30;;;;;;;25.00;15.70;;;;;;;;;;5030264;28;20191;-69
2022/10/21 13:39:57;;;;;;;28.43;17.03;;;;;;;;;;5030560;28;20187;-68
2022/10/21 13:42:25;;;;;;;27.13;15.33;;;;;;;;;;5030043;28;20219;-69
2022/10/21 13:44:52;;;;;;;26.77;16.70;;;;;;;;;;5030697;28;20187;-68
2022/10/21 13:47:24;;;;;;;24.87;16.47;;;;;;;;;;5013034;28;20687;-68
2022/10/21 13:49:55;;;;;;;28.37;18.37;;;;;;;;;;5012990;28;20242;-68
2022/10/21 13:52:28;;;;;;;25.70;16.23;;;;;;;;;;5020197;28;20191;-68
2022/10/21 13:54:58;;;;;;;24.87;16.50;;;;;;;;;;5012842;28;20202;-68
2022/10/21 13:57:31;;;;;;;29.40;15.83;;;;;;;;;;5012251;28;20928;-68
2022/10/21 13:59:59;;;;;;;25.87;16.67;;;;;;;;;;5029544;28;20724;-68
2022/10/21 14:02:26;;;;;;;24.07;15.33;;;;;;;;;;5029982;28;20226;-68
2022/10/21 14:04:53;;;;;;;28.50;16.03;;;;;;;;;;5012846;28;20196;-68
2022/10/21 14:07:20;;;;;;;22.67;13.27;;;;;;;;;;5011952;28;20203;-68
2022/10/21 14:09:51;;;;;;;25.27;15.97;;;;;;;;;;5012461;28;20195;-69
2022/10/21 14:12:28;;;;;;;27.93;16.37;;;;;;;;;;5031439;28;20193;-68
2022/10/21 14:14:55;;;;;;;25.50;15.37;;;;;;;;;;5019212;28;20716;-68
2022/10/21 14:17:23;;;;;;;27.23;15.27;;;;;;;;;;5011761;28;20184;-68
2022/10/21 14:19:51;;;;;;;25.50;15.90;;;;;;;;;;5012291;28;20649;-68
2022/10/21 14:22:19;;;;;;;26.50;16.70;;;;;;;;;;5011632;28;20235;-67
2022/10/21 14:24:46;;;;;;;28.03;17.30;;;;;;;;;;5013989;28;20225;-68
2022/10/21 14:27:14;;;;;;;25.03;15.10;;;;;;;;;;5016158;28;20197;-69
2022/10/21 14:29:42;;;;;;;24.73;15.47;;;;;;;;;;4995416;28;20249;-69
2022/10/21 14:32:11;;;;;;;23.50;15.00;;;;;;;;;;5028893;28;20254;-69
2022/10/21 14:34:52;;;;;;;22.40;14.43;;;;;;;;;;5012316;28;20191;-69
2022/10/21 14:37:19;;;;;;;22.83;14.37;;;;;;;;;;5012021;28;20187;-68